createdAt,value
2018-02-06T00:00:35.404Z,23.70
2018-02-06T00:03:04.051Z,16.73
2018-02-06T00:05:32.719Z,26.87
2018-02-06T00:08:01.363Z,21.70
2018-02-06T00:10:30.055Z,17.15
2018-02-06T00:12:58.723Z,19.50
2018-02-06T00:15:27.381Z,21.20
2018-02-06T00:17:56.815Z,15.68
2018-02-06T00:20:25.478Z,15.63
2018-02-06T00:22:54.113Z,10.65
2018-02-06T00:25:22.796Z,21.80
2018-02-06T00:27:51.471Z,18.40
2018-02-06T00:30:20.139Z,28.30
2018-02-06T00:32:48.841Z,19.77
2018-02-06T00:35:17.496Z,19.73
2018-02-06T00:37:47.173Z,19.92
2018-02-06T00:40:15.816Z,20.58
2018-02-06T00:42:44.501Z,18.17
2018-02-06T00:45:13.151Z,16.52
2018-02-06T00:47:41.895Z,23.40
2018-02-06T00:50:10.555Z,19.87
2018-02-06T00:52:39.261Z,18.98
2018-02-06T00:55:08.847Z,17.17
2018-02-06T00:57:37.503Z,21.60
2018-02-06T01:00:06.151Z,27.00
2018-02-06T01:02:34.827Z,26.62
2018-02-06T01:05:03.511Z,21.05
2018-02-06T01:07:32.177Z,21.90
2018-02-06T01:10:00.828Z,21.35
2018-02-06T01:12:29.547Z,22.40
2018-02-06T01:14:58.193Z,20.60
2018-02-06T01:17:26.888Z,21.48
2018-02-06T01:19:55.555Z,20.95
2018-02-06T01:22:25.041Z,20.35
2018-02-06T01:24:53.685Z,23.83
2018-02-06T01:27:22.361Z,18.98
2018-02-06T01:29:51.017Z,20.60
2018-02-06T01:32:20.435Z,27.95
2018-02-06T01:34:49.078Z,18.83
2018-02-06T01:37:17.732Z,28.02
2018-02-06T01:39:46.412Z,18.15
2018-02-06T01:44:50.105Z,19.40
2018-02-06T01:47:18.751Z,21.40
2018-02-06T01:49:58.509Z,22.35
2018-02-06T01:52:27.161Z,20.83
2018-02-06T01:54:55.849Z,24.60
2018-02-06T01:57:24.543Z,21.90
2018-02-06T01:59:53.231Z,22.90
2018-02-06T02:02:21.891Z,25.37
2018-02-06T02:04:50.554Z,22.10
2018-02-06T02:07:19.944Z,30.60
2018-02-06T02:09:49.399Z,29.60
2018-02-06T02:12:18.264Z,20.77
2018-02-06T02:14:47.064Z,26.95
2018-02-06T02:17:16.572Z,28.35
2018-02-06T02:19:44.877Z,25.33
2018-02-06T02:22:13.551Z,26.60
2018-02-06T02:24:42.198Z,23.33
2018-02-06T02:27:10.844Z,26.05
2018-02-06T02:29:40.304Z,26.23
2018-02-06T02:32:09.734Z,25.70
2018-02-06T02:34:38.406Z,25.15
2018-02-06T02:37:07.053Z,23.02
2018-02-06T02:39:35.701Z,18.92
2018-02-06T04:38:41.291Z,24.90
2018-02-06T04:41:10.717Z,23.05
2018-02-06T04:43:39.371Z,21.30
2018-02-06T04:46:08.039Z,24.55
2018-02-06T04:48:36.681Z,19.92
2018-02-06T04:51:05.431Z,22.05
2018-02-06T04:53:34.086Z,25.88
2018-02-06T04:56:02.734Z,24.02
2018-02-06T04:58:31.065Z,19.10
2018-02-06T05:00:59.729Z,20.40
2018-02-06T05:03:28.431Z,24.83
2018-02-06T05:05:57.193Z,21.55
2018-02-06T05:08:25.850Z,33.10
2018-02-06T05:10:55.312Z,22.75
2018-02-06T05:13:23.966Z,21.73
2018-02-06T05:15:52.634Z,27.80
2018-02-06T05:18:21.884Z,27.98
2018-02-06T05:20:50.537Z,31.23
2018-02-06T05:23:19.191Z,25.10
2018-02-06T05:25:47.848Z,22.52
2018-02-06T05:28:16.509Z,27.60
2018-02-06T05:30:45.248Z,22.45
2018-02-06T05:33:14.660Z,27.67
2018-02-06T05:35:43.316Z,34.20
2018-02-06T05:38:11.976Z,20.95
2018-02-06T05:40:40.655Z,26.30
2018-02-06T05:43:09.319Z,32.00
2018-02-06T05:45:37.967Z,29.95
2018-02-06T05:48:06.615Z,30.67
2018-02-06T05:50:35.269Z,36.92
2018-02-06T05:53:03.930Z,30.83
2018-02-06T05:55:33.338Z,23.98
2018-02-06T05:58:02.773Z,26.80
2018-02-06T06:00:31.419Z,25.00
2018-02-06T06:03:01.207Z,26.62
2018-02-06T06:05:29.874Z,32.13
2018-02-06T06:07:58.518Z,22.67
2018-02-06T06:10:28.317Z,24.20
2018-02-06T06:12:57.010Z,23.62
2018-02-06T06:15:25.770Z,27.80
2018-02-06T06:17:54.432Z,25.33
2018-02-06T06:20:23.076Z,18.23
2018-02-06T06:22:51.717Z,28.45
2018-02-06T06:25:21.144Z,23.35
2018-02-06T06:27:50.557Z,32.10
2018-02-06T06:30:19.263Z,32.17
2018-02-06T06:32:47.916Z,31.02
2018-02-06T06:35:19.676Z,29.48
2018-02-06T06:37:48.343Z,29.83
2018-02-06T06:40:17.831Z,29.02
2018-02-06T06:42:46.494Z,30.60
2018-02-06T06:45:15.124Z,24.92
2018-02-06T06:47:44.536Z,30.40
2018-02-06T06:50:14.130Z,25.12
2018-02-06T06:52:42.785Z,25.33
2018-02-06T06:55:11.486Z,32.03
2018-02-06T06:57:40.904Z,38.78
2018-02-06T07:00:10.337Z,27.08
2018-02-06T07:02:39.003Z,34.97
2018-02-06T07:05:08.415Z,29.73
2018-02-06T07:07:36.739Z,26.75
2018-02-06T07:10:05.389Z,29.20
2018-02-06T07:12:34.016Z,22.55
2018-02-06T07:15:02.664Z,34.08
2018-02-06T07:17:31.333Z,35.58
2018-02-06T07:20:00.014Z,23.40
2018-02-06T07:22:29.499Z,28.35
2018-02-06T07:24:58.914Z,36.63
2018-02-06T07:27:27.657Z,25.48
2018-02-06T07:29:56.299Z,27.92
2018-02-06T07:32:24.977Z,30.98
2018-02-06T07:34:53.618Z,30.45
2018-02-06T07:37:22.270Z,30.48
2018-02-06T07:39:50.919Z,29.27
2018-02-06T07:42:20.326Z,26.10
2018-02-06T07:44:49.796Z,24.73
2018-02-06T07:47:19.288Z,31.00
2018-02-06T07:49:48.800Z,27.13
2018-02-06T07:52:17.448Z,32.05
2018-02-06T07:54:46.196Z,29.73
2018-02-06T07:57:15.637Z,36.28
2018-02-06T07:59:44.303Z,24.70
2018-02-06T08:02:13.015Z,27.58
2018-02-06T08:04:41.862Z,32.17
2018-02-06T08:07:11.276Z,19.98
2018-02-06T08:09:39.999Z,17.37
2018-02-06T08:12:08.670Z,27.02
2018-02-06T08:14:37.312Z,27.85
2018-02-06T08:17:06.803Z,29.40
2018-02-06T08:19:35.489Z,30.67
2018-02-06T08:22:04.155Z,23.12
2018-02-06T08:24:32.811Z,20.88
2018-02-06T08:27:01.469Z,21.27
2018-02-06T08:29:30.124Z,28.00
2018-02-06T08:31:58.773Z,27.13
2018-02-06T08:34:27.446Z,31.40
2018-02-06T08:36:56.983Z,25.90
2018-02-06T08:39:25.632Z,26.60
2018-02-06T08:41:54.284Z,28.30
2018-02-06T08:44:23.692Z,26.10
2018-02-06T08:46:53.124Z,24.52
2018-02-06T08:49:21.760Z,25.85
2018-02-06T08:51:51.172Z,23.55
2018-02-06T08:54:19.840Z,24.48
2018-02-06T08:56:48.483Z,28.10
2018-02-06T08:59:16.968Z,27.92
2018-02-06T09:01:45.618Z,24.85
2018-02-06T09:04:15.029Z,25.20
2018-02-06T09:06:44.451Z,26.25
2018-02-06T09:09:13.080Z,26.50
2018-02-06T09:11:41.740Z,23.08
2018-02-06T09:14:10.375Z,27.02
2018-02-06T09:16:39.909Z,27.35
2018-02-06T09:19:08.807Z,28.73
2018-02-06T09:21:37.467Z,25.35
2018-02-06T09:24:06.127Z,29.63
2018-02-06T09:26:34.771Z,28.80
2018-02-06T09:29:03.443Z,32.72
2018-02-06T09:31:32.094Z,28.38
2018-02-06T09:34:01.502Z,34.08
2018-02-06T09:36:29.907Z,25.73
2018-02-06T09:38:58.563Z,23.02
2018-02-06T09:41:27.240Z,21.12
2018-02-06T09:43:56.663Z,26.80
2018-02-06T09:46:25.306Z,26.83
2018-02-06T09:48:53.972Z,26.08
2018-02-06T09:51:22.626Z,33.75
2018-02-06T09:53:51.281Z,29.02
2018-02-06T09:56:20.699Z,32.55
2018-02-06T09:58:49.342Z,27.23
2018-02-06T10:01:18.030Z,31.73
2018-02-06T10:03:46.723Z,22.35
2018-02-06T10:06:15.380Z,29.37
2018-02-06T10:08:44.043Z,29.73
2018-02-06T10:11:12.682Z,28.12
2018-02-06T10:13:41.356Z,28.73
2018-02-06T10:16:10.015Z,28.25
2018-02-06T10:18:39.439Z,34.13
2018-02-06T10:21:08.235Z,23.02
2018-02-06T10:23:36.875Z,24.52
2018-02-06T10:26:06.284Z,33.10
2018-02-06T10:28:36.371Z,20.85
2018-02-06T10:31:08.443Z,29.65
2018-02-06T10:33:37.212Z,31.17
2018-02-06T10:36:05.596Z,28.40
2018-02-06T10:38:33.992Z,31.90
2018-02-06T10:41:02.635Z,28.52
2018-02-06T10:43:31.026Z,26.77
2018-02-06T10:46:00.453Z,37.92
2018-02-06T10:48:29.103Z,20.33
2018-02-06T10:50:58.555Z,42.30
2018-02-06T10:53:27.187Z,27.83
2018-02-06T10:55:55.862Z,31.55
2018-02-06T10:58:24.507Z,31.02
2018-02-06T11:00:52.906Z,34.53
2018-02-06T11:03:21.581Z,28.73
2018-02-06T11:05:50.330Z,27.85
2018-02-06T11:08:19.733Z,30.17
2018-02-06T11:10:48.459Z,35.90
2018-02-06T11:13:17.139Z,36.50
2018-02-06T11:15:46.654Z,32.80
2018-02-06T11:18:16.226Z,27.60
2018-02-06T11:20:44.606Z,23.97
2018-02-06T11:23:12.983Z,34.23
2018-02-06T11:25:41.639Z,32.83
2018-02-06T11:28:11.063Z,33.10
2018-02-06T11:30:40.290Z,33.50
2018-02-06T11:33:08.937Z,32.42
2018-02-06T11:35:37.334Z,36.40
2018-02-06T11:38:06.044Z,34.80
2018-02-06T11:40:34.707Z,39.40
2018-02-06T11:43:04.016Z,29.42
2018-02-06T11:45:32.676Z,38.30
2018-02-06T11:48:02.000Z,35.15
2018-02-06T11:50:31.172Z,21.50
2018-02-06T11:52:59.571Z,33.07
2018-02-06T11:55:28.293Z,33.40
2018-02-06T11:57:56.935Z,28.95
2018-02-06T12:00:25.592Z,28.45
2018-02-06T12:02:54.215Z,36.03
2018-02-06T12:05:22.622Z,39.03
2018-02-06T12:07:51.259Z,35.83
2018-02-06T12:10:19.633Z,37.63
2018-02-06T12:12:49.056Z,32.40
2018-02-06T12:15:17.712Z,34.72
2018-02-06T12:17:48.027Z,32.95
2018-02-06T12:20:17.454Z,31.48
2018-02-06T12:22:46.094Z,41.22
2018-02-06T12:25:15.734Z,32.88
2018-02-06T12:27:45.086Z,30.87
2018-02-06T12:30:13.794Z,36.90
2018-02-06T12:32:42.168Z,42.53
2018-02-06T12:35:10.546Z,28.70
2018-02-06T12:37:39.187Z,33.47
2018-02-06T12:40:07.836Z,34.97
2018-02-06T12:42:37.311Z,27.52
2018-02-06T12:45:06.451Z,36.30
2018-02-06T12:47:35.207Z,35.60
2018-02-06T12:50:04.072Z,36.72
2018-02-06T12:52:32.735Z,35.13
2018-02-06T12:55:01.440Z,15.52
2018-02-06T12:57:30.606Z,29.23
2018-02-06T12:59:59.243Z,29.27
2018-02-06T13:02:27.739Z,34.40
2018-02-06T13:04:56.376Z,30.95
2018-02-06T13:07:25.087Z,28.65
2018-02-06T13:09:53.526Z,31.63
2018-02-06T13:12:21.906Z,35.80
2018-02-06T13:14:50.326Z,32.33
2018-02-06T13:17:20.624Z,32.70
2018-02-06T13:19:49.054Z,37.67
2018-02-06T13:22:17.418Z,38.03
2018-02-06T13:24:45.810Z,36.70
2018-02-06T13:27:15.220Z,30.15
2018-02-06T13:29:43.608Z,30.53
2018-02-06T13:32:13.059Z,30.15
2018-02-06T13:34:42.459Z,40.25
2018-02-06T13:37:11.604Z,30.43
2018-02-06T13:39:40.288Z,34.33
2018-02-06T13:42:08.667Z,37.83
2018-02-06T13:44:37.039Z,38.87
2018-02-06T13:47:05.711Z,35.20
2018-02-06T13:49:34.123Z,40.70
2018-02-06T13:52:02.492Z,43.37
2018-02-06T13:54:31.261Z,43.58
2018-02-06T13:56:59.842Z,25.00
2018-02-06T13:59:30.086Z,36.45
2018-02-06T14:01:58.506Z,32.73
2018-02-06T14:04:27.160Z,38.72
2018-02-06T14:06:55.538Z,36.03
2018-02-06T14:09:24.199Z,42.42
2018-02-06T14:11:52.632Z,40.00
2018-02-06T14:14:21.278Z,36.03
2018-02-06T14:16:49.729Z,39.40
2018-02-06T14:19:18.103Z,24.63
2018-02-06T14:21:46.758Z,27.23
2018-02-06T14:24:15.927Z,34.43
2018-02-06T14:26:44.576Z,37.63
2018-02-06T14:29:14.014Z,31.33
2018-02-06T14:31:43.079Z,33.83
2018-02-06T14:34:12.498Z,36.60
2018-02-06T14:36:41.136Z,44.03
2018-02-06T14:39:09.834Z,36.35
2018-02-06T14:41:38.527Z,38.03
2018-02-06T14:44:07.948Z,30.55
2018-02-06T14:46:36.615Z,31.23
2018-02-06T14:49:06.021Z,37.85
2018-02-06T14:51:35.447Z,31.73
2018-02-06T14:54:04.301Z,29.85
2018-02-06T14:56:33.827Z,32.25
2018-02-06T14:59:03.263Z,27.80
2018-02-06T15:01:31.926Z,32.28
2018-02-06T15:04:00.587Z,40.85
2018-02-06T15:06:29.019Z,30.50
2018-02-06T15:08:57.694Z,33.17
2018-02-06T15:11:27.284Z,40.17
2018-02-06T15:13:55.988Z,35.88
2018-02-06T15:16:24.357Z,35.10
2018-02-06T15:18:52.739Z,43.77
2018-02-06T15:21:21.128Z,34.03
2018-02-06T15:23:49.495Z,37.93
2018-02-06T15:26:17.875Z,35.40
2018-02-06T15:28:47.149Z,35.70
2018-02-06T15:31:15.523Z,34.30
2018-02-06T15:33:44.488Z,31.47
2018-02-06T15:36:12.983Z,33.43
2018-02-06T15:38:41.636Z,32.30
2018-02-06T15:41:10.287Z,27.48
2018-02-06T15:43:38.706Z,37.90
2018-02-06T15:46:07.899Z,35.63
2018-02-06T15:48:36.375Z,29.35
2018-02-06T15:51:05.611Z,38.10
2018-02-06T15:53:35.035Z,38.60
2018-02-06T15:56:03.802Z,35.05
2018-02-06T15:58:33.038Z,30.75
2018-02-06T16:01:02.169Z,33.57
2018-02-06T16:03:30.839Z,38.03
2018-02-06T16:06:00.252Z,35.88
2018-02-06T16:08:28.896Z,36.63
2018-02-06T16:10:57.576Z,37.40
2018-02-06T16:13:25.959Z,30.50
2018-02-06T16:15:54.347Z,34.63
2018-02-06T16:18:22.748Z,36.07
2018-02-06T16:20:51.394Z,33.35
2018-02-06T16:23:20.067Z,36.38
2018-02-06T16:25:48.720Z,31.58
2018-02-06T16:28:17.404Z,35.97
2018-02-06T16:30:46.045Z,27.13
2018-02-06T16:33:14.773Z,32.50
2018-02-06T16:35:43.414Z,28.55
2018-02-06T16:38:12.108Z,34.42
2018-02-06T16:40:40.756Z,34.33
2018-02-06T16:43:09.415Z,39.42
2018-02-06T16:45:38.077Z,37.72
2018-02-06T16:48:06.719Z,39.22
2018-02-06T16:50:35.380Z,31.58
2018-02-06T16:53:04.820Z,37.60
2018-02-06T16:55:33.584Z,29.30
2018-02-06T16:58:03.020Z,33.17
2018-02-06T17:00:31.679Z,36.78
2018-02-06T17:03:00.332Z,38.55
2018-02-06T17:05:29.835Z,36.75
2018-02-06T17:07:58.646Z,34.70
2018-02-06T17:10:28.059Z,44.10
2018-02-06T17:12:56.719Z,29.27
2018-02-06T17:15:25.354Z,29.37
2018-02-06T17:17:54.043Z,33.08
2018-02-06T17:20:22.710Z,33.70
2018-02-06T17:22:51.474Z,31.70
2018-02-06T17:25:20.899Z,26.58
2018-02-06T17:27:49.589Z,34.13
2018-02-06T17:30:18.260Z,33.40
2018-02-06T17:32:47.673Z,42.67
2018-02-06T17:35:16.332Z,36.28
2018-02-06T17:37:45.761Z,35.80
2018-02-06T17:40:18.440Z,30.40
2018-02-06T17:42:47.130Z,39.08
2018-02-06T17:45:15.816Z,40.42
2018-02-06T17:47:44.480Z,39.80
2018-02-06T17:50:13.909Z,43.00
2018-02-06T17:52:42.850Z,37.50
2018-02-06T17:55:12.634Z,38.47
2018-02-06T17:57:42.328Z,35.60
2018-02-06T18:00:11.069Z,37.97
2018-02-06T18:02:42.170Z,42.13
2018-02-06T18:05:10.917Z,47.72
2018-02-06T18:07:39.571Z,40.25
2018-02-06T18:10:07.890Z,42.53
2018-02-06T18:12:37.250Z,42.17
2018-02-06T18:15:06.714Z,41.55
2018-02-06T18:17:35.382Z,32.97
2018-02-06T18:20:04.131Z,45.20
2018-02-06T18:22:33.631Z,41.50
2018-02-06T18:25:03.521Z,29.70
2018-02-06T18:27:32.175Z,35.60
2018-02-06T18:30:00.859Z,41.75
2018-02-06T18:32:29.507Z,45.30
2018-02-06T18:34:59.012Z,33.15
2018-02-06T18:37:28.625Z,39.83
2018-02-06T18:39:58.036Z,39.13
2018-02-06T18:42:27.475Z,40.25
2018-02-06T18:44:55.914Z,33.13
2018-02-06T18:47:24.562Z,31.73
2018-02-06T18:49:53.263Z,33.70
2018-02-06T18:52:21.927Z,39.80
2018-02-06T18:54:50.680Z,41.50
2018-02-06T18:57:19.355Z,42.60
2018-02-06T18:59:47.997Z,44.40
2018-02-06T19:02:16.657Z,39.10
2018-02-06T19:04:45.295Z,42.80
2018-02-06T19:07:13.977Z,41.08
2018-02-06T19:09:42.410Z,37.63
2018-02-06T19:12:11.092Z,51.03
2018-02-06T19:14:39.762Z,36.10
2018-02-06T19:17:08.442Z,47.15
2018-02-06T19:19:36.869Z,37.67
2018-02-06T19:22:05.515Z,45.55
2018-02-06T19:24:34.187Z,42.15
2018-02-06T19:27:02.857Z,40.12
2018-02-06T19:29:31.536Z,50.22
2018-02-06T19:32:00.371Z,47.25
2018-02-06T19:34:29.033Z,41.47
2018-02-06T19:36:57.710Z,44.22
2018-02-06T19:39:26.484Z,48.67
2018-02-06T19:41:57.352Z,43.10
2018-02-06T19:44:27.195Z,44.95
2018-02-06T19:46:55.898Z,42.97
2018-02-06T19:49:25.380Z,43.10
2018-02-06T19:51:54.899Z,49.00
2018-02-06T19:54:23.614Z,41.97
2018-02-06T19:56:53.161Z,44.25
2018-02-06T19:59:21.827Z,43.35
2018-02-06T20:01:50.574Z,45.90
2018-02-06T20:04:19.941Z,44.10
2018-02-06T20:06:50.051Z,47.58
2018-02-06T20:09:19.623Z,42.28
2018-02-06T20:11:48.399Z,38.67
2018-02-06T20:14:17.854Z,33.75
2018-02-06T20:16:46.540Z,37.05
2018-02-06T20:19:15.256Z,44.55
2018-02-06T20:21:43.927Z,40.95
2018-02-06T20:24:13.539Z,39.05
2018-02-06T20:26:42.299Z,46.05
2018-02-06T20:29:10.994Z,42.80
2018-02-06T20:31:39.679Z,47.67
2018-02-06T20:34:15.802Z,48.28
2018-02-06T20:36:45.680Z,39.03
2018-02-06T20:39:14.584Z,40.03
2018-02-06T20:41:44.203Z,43.17
2018-02-06T20:44:17.149Z,44.00
2018-02-06T20:46:46.255Z,46.78
2018-02-06T20:49:15.751Z,55.70
2018-02-06T20:51:45.230Z,52.67
2018-02-06T20:54:13.969Z,39.65
2018-02-06T20:56:43.527Z,48.22
2018-02-06T20:59:12.052Z,52.40
2018-02-06T21:01:41.516Z,42.15
2018-02-06T21:04:10.197Z,48.40
2018-02-06T21:06:38.900Z,52.58
2018-02-06T21:09:07.563Z,41.65
2018-02-06T21:11:36.213Z,44.20
2018-02-06T21:14:04.876Z,38.80
2018-02-06T21:16:33.360Z,47.15
2018-02-06T21:19:02.776Z,47.15
2018-02-06T21:21:31.446Z,44.28
2018-02-06T21:24:00.896Z,48.80
2018-02-06T21:26:29.583Z,49.55
2018-02-06T21:28:58.258Z,45.63
2018-02-06T21:31:26.990Z,43.85
2018-02-06T21:33:56.436Z,43.58
2018-02-06T21:36:25.097Z,44.00
2018-02-06T21:38:53.810Z,51.65
2018-02-06T21:41:22.472Z,60.00
2018-02-06T21:43:51.876Z,47.15
2018-02-06T21:46:21.317Z,51.15
2018-02-06T21:48:49.962Z,46.83
2018-02-06T21:51:18.634Z,49.38
2018-02-06T21:53:48.047Z,57.58
2018-02-06T21:56:17.462Z,54.75
2018-02-06T21:58:46.107Z,54.00
2018-02-06T22:01:14.801Z,48.40
2018-02-06T22:03:43.634Z,51.28
2018-02-06T22:06:12.278Z,49.35
2018-02-06T22:08:41.749Z,42.10
2018-02-06T22:11:10.399Z,46.63
2018-02-06T22:13:39.056Z,48.30
2018-02-06T22:16:08.481Z,50.00
2018-02-06T22:18:37.245Z,56.03
2018-02-06T22:21:05.985Z,47.40
2018-02-06T22:23:34.695Z,55.42
2018-02-06T22:26:03.355Z,49.80
2018-02-06T22:28:32.040Z,49.25
2018-02-06T22:31:00.706Z,50.33
2018-02-06T22:33:29.383Z,41.55
2018-02-06T22:35:59.326Z,46.13
2018-02-06T22:38:28.201Z,36.42
2018-02-06T22:40:57.005Z,43.15
2018-02-06T22:43:25.781Z,39.97
2018-02-06T22:45:54.459Z,39.17
2018-02-06T22:48:23.116Z,44.70
2018-02-06T22:50:51.824Z,38.72
2018-02-06T22:53:20.511Z,40.35
2018-02-06T22:55:49.168Z,32.72
2018-02-06T22:58:18.684Z,40.33
2018-02-06T23:00:47.452Z,36.00
2018-02-06T23:03:16.868Z,38.58
2018-02-06T23:05:45.544Z,40.65
2018-02-06T23:08:15.073Z,39.33
2018-02-06T23:10:43.738Z,41.80
2018-02-06T23:13:13.154Z,33.38
2018-02-06T23:15:42.043Z,38.78
2018-02-06T23:18:10.727Z,35.92
2018-02-06T23:20:39.391Z,39.00
2018-02-06T23:23:08.827Z,50.45
2018-02-06T23:25:37.499Z,38.42
2018-02-06T23:28:06.164Z,39.22
2018-02-06T23:30:35.001Z,38.80
2018-02-06T23:33:03.672Z,39.13
2018-02-06T23:35:32.348Z,41.05
2018-02-06T23:38:01.018Z,43.90
2018-02-06T23:40:29.832Z,33.70
2018-02-06T23:42:58.488Z,45.88
2018-02-06T23:45:27.896Z,40.28
2018-02-06T23:47:56.554Z,43.58
2018-02-06T23:50:25.201Z,34.70
2018-02-06T23:52:53.852Z,32.55
2018-02-06T23:55:22.515Z,46.28
2018-02-06T23:57:51.928Z,38.38
